sensor_id;sensor_type;location;lat;lon;timestamp;pressure;altitude;pressure_sealevel;temperature;humidity
49451;BME280;35336;48.400;10.886;2022-12-18T00:00:12;97347.84;;;-6.14;94.78
49451;BME280;35336;48.400;10.886;2022-12-18T00:00:27;97347.91;;;-6.15;94.72
49451;BME280;35336;48.400;10.886;2022-12-18T00:00:43;97339.28;;;-6.16;94.76
49451;BME280;35336;48.400;10.886;2022-12-18T00:00:59;97346.09;;;-6.13;94.79
49451;BME280;35336;48.400;10.886;2022-12-18T00:01:16;97350.28;;;-6.11;94.81
49451;BME280;35336;48.400;10.886;2022-12-18T00:01:34;97341.88;;;-6.16;94.93
49451;BME280;35336;48.400;10.886;2022-12-18T00:01:50;97342.59;;;-6.12;94.96
49451;BME280;35336;48.400;10.886;2022-12-18T00:02:05;97347.00;;;-6.14;94.71
49451;BME280;35336;48.400;10.886;2022-12-18T00:02:21;97333.47;;;-6.21;94.92
49451;BME280;35336;48.400;10.886;2022-12-18T00:02:36;97342.00;;;-6.19;94.87
49451;BME280;35336;48.400;10.886;2022-12-18T00:02:52;97352.81;;;-6.09;94.84
49451;BME280;35336;48.400;10.886;2022-12-18T00:03:07;97346.91;;;-6.13;95.12
49451;BME280;35336;48.400;10.886;2022-12-18T00:03:22;97314.19;;;-6.36;94.77
49451;BME280;35336;48.400;10.886;2022-12-18T00:03:38;97358.88;;;-6.09;94.87
49451;BME280;35336;48.400;10.886;2022-12-18T00:03:54;97347.69;;;-6.11;94.85
49451;BME280;35336;48.400;10.886;2022-12-18T00:04:21;97342.00;;;-6.19;94.68
49451;BME280;35336;48.400;10.886;2022-12-18T00:04:36;97356.19;;;-6.07;94.84
49451;BME280;35336;48.400;10.886;2022-12-18T00:04:52;97306.59;;;-6.41;94.63
49451;BME280;35336;48.400;10.886;2022-12-18T00:05:07;97357.97;;;-6.08;94.81
49451;BME280;35336;48.400;10.886;2022-12-18T00:05:23;97356.34;;;-6.10;94.68
49451;BME280;35336;48.400;10.886;2022-12-18T00:05:48;97328.47;;;-6.26;94.74
49451;BME280;35336;48.400;10.886;2022-12-18T00:06:04;97365.75;;;-6.08;94.76
49451;BME280;35336;48.400;10.886;2022-12-18T00:06:20;97361.31;;;-6.06;94.86
49451;BME280;35336;48.400;10.886;2022-12-18T00:06:35;97325.00;;;-6.26;94.85
49451;BME280;35336;48.400;10.886;2022-12-18T00:06:51;97308.28;;;-6.40;94.72
49451;BME280;35336;48.400;10.886;2022-12-18T00:07:07;97362.25;;;-6.07;95.11
49451;BME280;35336;48.400;10.886;2022-12-18T00:07:22;97363.06;;;-6.06;94.76
49451;BME280;35336;48.400;10.886;2022-12-18T00:07:37;97355.41;;;-6.09;94.81
49451;BME280;35336;48.400;10.886;2022-12-18T00:07:53;97345.38;;;-6.17;94.63
49451;BME280;35336;48.400;10.886;2022-12-18T00:08:08;97364.88;;;-6.08;94.59
49451;BME280;35336;48.400;10.886;2022-12-18T00:08:23;97362.38;;;-6.10;94.70
49451;BME280;35336;48.400;10.886;2022-12-18T00:08:42;97338.69;;;-6.23;94.68
49451;BME280;35336;48.400;10.886;2022-12-18T00:08:59;97359.78;;;-6.10;94.74
49451;BME280;35336;48.400;10.886;2022-12-18T00:09:15;97340.47;;;-6.23;94.82
49451;BME280;35336;48.400;10.886;2022-12-18T00:09:30;97349.59;;;-6.14;95.02
49451;BME280;35336;48.400;10.886;2022-12-18T00:09:46;97354.50;;;-6.08;95.04
49451;BME280;35336;48.400;10.886;2022-12-18T00:10:01;97352.69;;;-6.06;95.01
49451;BME280;35336;48.400;10.886;2022-12-18T00:10:18;97343.56;;;-6.15;95.02
49451;BME280;35336;48.400;10.886;2022-12-18T00:10:33;97354.38;;;-6.05;95.02
49451;BME280;35336;48.400;10.886;2022-12-18T00:10:48;97319.81;;;-6.26;95.02
49451;BME280;35336;48.400;10.886;2022-12-18T00:11:06;97351.84;;;-6.07;95.11
49451;BME280;35336;48.400;10.886;2022-12-18T00:11:24;97350.16;;;-6.08;95.10
49451;BME280;35336;48.400;10.886;2022-12-18T00:11:40;97342.50;;;-6.11;95.18
49451;BME280;35336;48.400;10.886;2022-12-18T00:11:56;97344.91;;;-6.06;95.06
49451;BME280;35336;48.400;10.886;2022-12-18T00:12:11;97354.44;;;-6.07;95.04
49451;BME280;35336;48.400;10.886;2022-12-18T00:12:27;97351.69;;;-6.03;95.01
49451;BME280;35336;48.400;10.886;2022-12-18T00:12:42;97359.50;;;-6.03;95.02
49451;BME280;35336;48.400;10.886;2022-12-18T00:12:57;97343.41;;;-6.12;94.86
49451;BME280;35336;48.400;10.886;2022-12-18T00:13:13;97350.91;;;-6.06;94.68
49451;BME280;35336;48.400;10.886;2022-12-18T00:13:28;97337.88;;;-6.23;94.91
49451;BME280;35336;48.400;10.886;2022-12-18T00:13:44;97341.72;;;-6.13;94.93
49451;BME280;35336;48.400;10.886;2022-12-18T00:14:00;97345.88;;;-6.09;95.04
49451;BME280;35336;48.400;10.886;2022-12-18T00:14:15;97314.78;;;-6.29;95.13
49451;BME280;35336;48.400;10.886;2022-12-18T00:14:30;97357.69;;;-6.01;95.09
49451;BME280;35336;48.400;10.886;2022-12-18T00:14:46;97342.50;;;-6.11;95.10
49451;BME280;35336;48.400;10.886;2022-12-18T00:15:01;97337.31;;;-6.11;95.10
49451;BME280;35336;48.400;10.886;2022-12-18T00:15:16;97324.72;;;-6.20;94.92
49451;BME280;35336;48.400;10.886;2022-12-18T00:15:35;97358.47;;;-5.99;95.01
49451;BME280;35336;48.400;10.886;2022-12-18T00:15:50;97358.47;;;-5.99;94.94
49451;BME280;35336;48.400;10.886;2022-12-18T00:16:11;97334.59;;;-6.08;95.13
49451;BME280;35336;48.400;10.886;2022-12-18T00:16:28;97349.88;;;-6.01;95.20
49451;BME280;35336;48.400;10.886;2022-12-18T00:16:44;97355.69;;;-5.96;95.08
49451;BME280;35336;48.400;10.886;2022-12-18T00:17:00;97356.47;;;-5.94;95.02
49451;BME280;35336;48.400;10.886;2022-12-18T00:17:15;97352.25;;;-5.97;94.94
49451;BME280;35336;48.400;10.886;2022-12-18T00:17:31;97321.38;;;-6.22;94.69
49451;BME280;35336;48.400;10.886;2022-12-18T00:17:46;97336.41;;;-6.10;95.00
49451;BME280;35336;48.400;10.886;2022-12-18T00:18:01;97330.50;;;-6.13;94.79
49451;BME280;35336;48.400;10.886;2022-12-18T00:18:16;97338.09;;;-6.09;94.77
49451;BME280;35336;48.400;10.886;2022-12-18T00:18:32;97355.69;;;-5.96;95.06
49451;BME280;35336;48.400;10.886;2022-12-18T00:18:49;97354.00;;;-5.97;95.13
49451;BME280;35336;48.400;10.886;2022-12-18T00:19:05;97354.09;;;-5.99;95.18
49451;BME280;35336;48.400;10.886;2022-12-18T00:19:20;97353.88;;;-5.94;95.24
49451;BME280;35336;48.400;10.886;2022-12-18T00:19:35;97356.47;;;-5.94;95.17
49451;BME280;35336;48.400;10.886;2022-12-18T00:19:51;97352.97;;;-5.93;95.16
49451;BME280;35336;48.400;10.886;2022-12-18T00:20:07;97354.78;;;-5.95;95.11
49451;BME280;35336;48.400;10.886;2022-12-18T00:20:22;97338.72;;;-6.03;95.11
49451;BME280;35336;48.400;10.886;2022-12-18T00:20:41;97360.66;;;-5.92;95.00
49451;BME280;35336;48.400;10.886;2022-12-18T00:21:01;97359.84;;;-5.92;94.79
49451;BME280;35336;48.400;10.886;2022-12-18T00:21:18;97347.09;;;-5.98;95.04
49451;BME280;35336;48.400;10.886;2022-12-18T00:21:33;97356.47;;;-5.94;94.81
49451;BME280;35336;48.400;10.886;2022-12-18T00:21:49;97358.16;;;-5.93;94.90
49451;BME280;35336;48.400;10.886;2022-12-18T00:22:04;97341.31;;;-6.03;94.91
49451;BME280;35336;48.400;10.886;2022-12-18T00:22:19;97363.34;;;-5.93;94.81
49451;BME280;35336;48.400;10.886;2022-12-18T00:22:35;97360.75;;;-5.93;94.78
49451;BME280;35336;48.400;10.886;2022-12-18T00:22:51;97339.72;;;-6.06;94.62
49451;BME280;35336;48.400;10.886;2022-12-18T00:23:07;97334.50;;;-6.06;94.74
49451;BME280;35336;48.400;10.886;2022-12-18T00:23:22;97342.88;;;-5.99;94.77
49451;BME280;35336;48.400;10.886;2022-12-18T00:23:39;97332.91;;;-6.09;94.64
49451;BME280;35336;48.400;10.886;2022-12-18T00:23:55;97357.28;;;-5.94;94.71
49451;BME280;35336;48.400;10.886;2022-12-18T00:24:11;97359.88;;;-5.94;94.80
49451;BME280;35336;48.400;10.886;2022-12-18T00:24:26;97354.78;;;-5.95;94.80
49451;BME280;35336;48.400;10.886;2022-12-18T00:24:42;97351.38;;;-5.97;94.79
49451;BME280;35336;48.400;10.886;2022-12-18T00:24:57;97347.38;;;-6.03;94.59
49451;BME280;35336;48.400;10.886;2022-12-18T00:25:12;97353.16;;;-5.98;94.67
49451;BME280;35336;48.400;10.886;2022-12-18T00:25:28;97351.34;;;-5.96;94.68
49451;BME280;35336;48.400;10.886;2022-12-18T00:25:43;97354.78;;;-5.95;94.71
49451;BME280;35336;48.400;10.886;2022-12-18T00:26:00;97331.09;;;-6.07;94.84
49451;BME280;35336;48.400;10.886;2022-12-18T00:26:21;97356.59;;;-5.97;94.61
49451;BME280;35336;48.400;10.886;2022-12-18T00:26:38;97358.34;;;-5.98;94.46
49451;BME280;35336;48.400;10.886;2022-12-18T00:26:53;97355.00;;;-6.00;94.53
49451;BME280;35336;48.400;10.886;2022-12-18T00:27:08;97324.59;;;-6.17;94.41
49451;BME280;35336;48.400;10.886;2022-12-18T00:27:24;97322.00;;;-6.17;94.48
49451;BME280;35336;48.400;10.886;2022-12-18T00:27:39;97357.59;;;-6.00;94.81
49451;BME280;35336;48.400;10.886;2022-12-18T00:27:55;97315.53;;;-6.27;94.43
49451;BME280;35336;48.400;10.886;2022-12-18T00:28:10;97363.47;;;-5.96;94.72
49451;BME280;35336;48.400;10.886;2022-12-18T00:28:26;97358.34;;;-5.98;94.70
49451;BME280;35336;48.400;10.886;2022-12-18T00:28:42;97363.44;;;-5.95;94.64
49451;BME280;35336;48.400;10.886;2022-12-18T00:29:15;97330.00;;;-6.22;94.64
49451;BME280;35336;48.400;10.886;2022-12-18T00:29:30;97370.34;;;-5.95;94.56
49451;BME280;35336;48.400;10.886;2022-12-18T00:29:48;97323.13;;;-6.23;94.47
49451;BME280;35336;48.400;10.886;2022-12-18T00:30:03;97371.22;;;-5.95;94.49
49451;BME280;35336;48.400;10.886;2022-12-18T00:30:19;97363.44;;;-5.95;94.68
49451;BME280;35336;48.400;10.886;2022-12-18T00:30:34;97364.25;;;-5.94;94.56
49451;BME280;35336;48.400;10.886;2022-12-18T00:30:50;97347.50;;;-6.06;94.58
49451;BME280;35336;48.400;10.886;2022-12-18T00:31:10;97366.03;;;-5.95;94.82
49451;BME280;35336;48.400;10.886;2022-12-18T00:31:26;97346.66;;;-6.07;94.65
49451;BME280;35336;48.400;10.886;2022-12-18T00:31:42;97355.88;;;-5.99;94.63
49451;BME280;35336;48.400;10.886;2022-12-18T00:31:57;97355.88;;;-5.99;94.65
49451;BME280;35336;48.400;10.886;2022-12-18T00:32:13;97370.06;;;-5.89;94.79
49451;BME280;35336;48.400;10.886;2022-12-18T00:32:28;97339.81;;;-6.09;94.75
49451;BME280;35336;48.400;10.886;2022-12-18T00:32:43;97371.13;;;-5.93;94.79
49451;BME280;35336;48.400;10.886;2022-12-18T00:32:59;97313.72;;;-6.25;94.56
49451;BME280;35336;48.400;10.886;2022-12-18T00:33:14;97363.34;;;-5.93;94.62
49451;BME280;35336;48.400;10.886;2022-12-18T00:33:30;97370.06;;;-5.89;94.65
49451;BME280;35336;48.400;10.886;2022-12-18T00:33:45;97358.47;;;-5.99;94.62
49451;BME280;35336;48.400;10.886;2022-12-18T00:34:01;97372.75;;;-5.91;94.66
49451;BME280;35336;48.400;10.886;2022-12-18T00:34:17;97368.53;;;-5.93;94.72
49451;BME280;35336;48.400;10.886;2022-12-18T00:34:32;97371.91;;;-5.91;94.61
49451;BME280;35336;48.400;10.886;2022-12-18T00:34:47;97350.88;;;-6.04;94.67
49451;BME280;35336;48.400;10.886;2022-12-18T00:35:04;97370.34;;;-5.95;94.74
49451;BME280;35336;48.400;10.886;2022-12-18T00:35:20;97356.81;;;-6.02;94.69
49451;BME280;35336;48.400;10.886;2022-12-18T00:35:35;97368.84;;;-5.99;94.69
49451;BME280;35336;48.400;10.886;2022-12-18T00:35:50;97325.72;;;-6.23;94.78
49451;BME280;35336;48.400;10.886;2022-12-18T00:36:18;97352.63;;;-6.04;94.92
49451;BME280;35336;48.400;10.886;2022-12-18T00:36:34;97378.78;;;-5.90;94.76
49451;BME280;35336;48.400;10.886;2022-12-18T00:36:50;97375.44;;;-5.92;94.86
49451;BME280;35336;48.400;10.886;2022-12-18T00:37:05;97333.22;;;-6.16;94.69
49451;BME280;35336;48.400;10.886;2022-12-18T00:37:20;97365.47;;;-6.01;94.59
49451;BME280;35336;48.400;10.886;2022-12-18T00:37:36;97377.94;;;-5.91;94.63
49451;BME280;35336;48.400;10.886;2022-12-18T00:37:51;97379.75;;;-5.93;94.63
49451;BME280;35336;48.400;10.886;2022-12-18T00:38:06;97332.53;;;-6.20;94.38
49451;BME280;35336;48.400;10.886;2022-12-18T00:38:22;97381.44;;;-5.92;94.61
49451;BME280;35336;48.400;10.886;2022-12-18T00:38:37;97333.47;;;-6.21;94.75
49451;BME280;35336;48.400;10.886;2022-12-18T00:38:53;97371.34;;;-5.98;94.68
49451;BME280;35336;48.400;10.886;2022-12-18T00:39:10;97379.75;;;-5.93;94.80
49451;BME280;35336;48.400;10.886;2022-12-18T00:39:25;97364.59;;;-6.02;94.73
49451;BME280;35336;48.400;10.886;2022-12-18T00:39:41;97374.88;;;-5.99;94.65
49451;BME280;35336;48.400;10.886;2022-12-18T00:39:56;97376.63;;;-5.99;94.61
49451;BME280;35336;48.400;10.886;2022-12-18T00:40:12;97373.06;;;-5.98;94.66
49451;BME280;35336;48.400;10.886;2022-12-18T00:40:27;97383.22;;;-5.92;94.70
49451;BME280;35336;48.400;10.886;2022-12-18T00:40:42;97382.44;;;-5.94;94.63
49451;BME280;35336;48.400;10.886;2022-12-18T00:40:58;97363.91;;;-6.06;94.72
49451;BME280;35336;48.400;10.886;2022-12-18T00:41:15;97379.06;;;-5.96;94.75
49451;BME280;35336;48.400;10.886;2022-12-18T00:41:32;97370.66;;;-6.01;94.73
49451;BME280;35336;48.400;10.886;2022-12-18T00:41:47;97374.03;;;-5.99;94.74
49451;BME280;35336;48.400;10.886;2022-12-18T00:42:02;97368.97;;;-6.02;94.74
49451;BME280;35336;48.400;10.886;2022-12-18T00:42:18;97347.69;;;-6.11;94.74
49451;BME280;35336;48.400;10.886;2022-12-18T00:42:36;97360.41;;;-6.04;94.73
49451;BME280;35336;48.400;10.886;2022-12-18T00:42:51;97367.16;;;-6.00;94.75
49451;BME280;35336;48.400;10.886;2022-12-18T00:43:07;97383.97;;;-5.90;94.81
49451;BME280;35336;48.400;10.886;2022-12-18T00:43:22;97378.78;;;-5.90;94.96
49451;BME280;35336;48.400;10.886;2022-12-18T00:43:38;97372.13;;;-5.96;94.95
49451;BME280;35336;48.400;10.886;2022-12-18T00:43:54;97389.13;;;-5.88;94.87
49451;BME280;35336;48.400;10.886;2022-12-18T00:44:12;97370.44;;;-5.97;94.92
49451;BME280;35336;48.400;10.886;2022-12-18T00:44:27;97340.06;;;-6.14;95.12
49451;BME280;35336;48.400;10.886;2022-12-18T00:44:43;97374.44;;;-5.90;94.98
49451;BME280;35336;48.400;10.886;2022-12-18T00:44:58;97372.75;;;-5.91;94.96
49451;BME280;35336;48.400;10.886;2022-12-18T00:45:13;97389.81;;;-5.85;94.90
49451;BME280;35336;48.400;10.886;2022-12-18T00:45:31;97375.16;;;-5.86;95.04
49451;BME280;35336;48.400;10.886;2022-12-18T00:45:46;97373.47;;;-5.87;95.06
49451;BME280;35336;48.400;10.886;2022-12-18T00:46:02;97381.88;;;-5.82;94.88
49451;BME280;35336;48.400;10.886;2022-12-18T00:46:17;97386.09;;;-5.79;95.01
49451;BME280;35336;48.400;10.886;2022-12-18T00:46:33;97357.38;;;-5.95;94.78
49451;BME280;35336;48.400;10.886;2022-12-18T00:46:48;97371.75;;;-5.88;94.76
49451;BME280;35336;48.400;10.886;2022-12-18T00:47:04;97374.16;;;-5.83;94.75
49451;BME280;35336;48.400;10.886;2022-12-18T00:47:19;97340.69;;;-6.09;94.60
49451;BME280;35336;48.400;10.886;2022-12-18T00:47:34;97335.50;;;-6.09;94.62
49451;BME280;35336;48.400;10.886;2022-12-18T00:47:50;97362.34;;;-5.91;94.62
49451;BME280;35336;48.400;10.886;2022-12-18T00:48:05;97365.78;;;-5.90;94.61
49451;BME280;35336;48.400;10.886;2022-12-18T00:48:21;97354.84;;;-5.97;94.63
49451;BME280;35336;48.400;10.886;2022-12-18T00:48:36;97373.34;;;-5.84;94.48
49451;BME280;35336;48.400;10.886;2022-12-18T00:48:51;97378.53;;;-5.84;94.48
49451;BME280;35336;48.400;10.886;2022-12-18T00:49:07;97379.47;;;-5.86;94.46
49451;BME280;35336;48.400;10.886;2022-12-18T00:49:22;97386.53;;;-5.88;94.56
49451;BME280;35336;48.400;10.886;2022-12-18T00:49:38;97377.94;;;-5.91;94.60
49451;BME280;35336;48.400;10.886;2022-12-18T00:49:53;97381.16;;;-5.85;94.57
49451;BME280;35336;48.400;10.886;2022-12-18T00:50:09;97365.16;;;-5.95;94.70
49451;BME280;35336;48.400;10.886;2022-12-18T00:50:24;97361.78;;;-5.97;94.69
49451;BME280;35336;48.400;10.886;2022-12-18T00:50:40;97380.34;;;-5.86;94.51
49451;BME280;35336;48.400;10.886;2022-12-18T00:50:55;97358.47;;;-5.99;94.65
49451;BME280;35336;48.400;10.886;2022-12-18T00:51:10;97370.44;;;-5.97;94.79
49451;BME280;35336;48.400;10.886;2022-12-18T00:51:26;97377.94;;;-5.91;94.88
49451;BME280;35336;48.400;10.886;2022-12-18T00:51:41;97369.44;;;-5.94;94.86
49451;BME280;35336;48.400;10.886;2022-12-18T00:51:57;97380.41;;;-5.87;94.90
49451;BME280;35336;48.400;10.886;2022-12-18T00:52:12;97381.25;;;-5.87;94.97
49451;BME280;35336;48.400;10.886;2022-12-18T00:52:27;97385.53;;;-5.86;94.76
49451;BME280;35336;48.400;10.886;2022-12-18T00:52:43;97362.88;;;-6.01;94.69
49451;BME280;35336;48.400;10.886;2022-12-18T00:52:58;97368.84;;;-5.99;94.70
49451;BME280;35336;48.400;10.886;2022-12-18T00:53:14;97381.38;;;-5.90;94.61
49451;BME280;35336;48.400;10.886;2022-12-18T00:53:29;97385.53;;;-5.86;94.64
49451;BME280;35336;48.400;10.886;2022-12-18T00:53:45;97368.97;;;-6.02;94.99
49451;BME280;35336;48.400;10.886;2022-12-18T00:54:00;97367.84;;;-5.97;94.91
49451;BME280;35336;48.400;10.886;2022-12-18T00:54:16;97381.31;;;-5.88;95.12
49451;BME280;35336;48.400;10.886;2022-12-18T00:54:32;97384.56;;;-5.83;94.95
49451;BME280;35336;48.400;10.886;2022-12-18T00:54:47;97376.25;;;-5.92;94.89
49451;BME280;35336;48.400;10.886;2022-12-18T00:55:03;97391.44;;;-5.82;94.98
49451;BME280;35336;48.400;10.886;2022-12-18T00:55:18;97386.25;;;-5.82;94.89
49451;BME280;35336;48.400;10.886;2022-12-18T00:55:33;97388.06;;;-5.84;94.87
49451;BME280;35336;48.400;10.886;2022-12-18T00:55:49;97394.16;;;-5.85;94.63
49451;BME280;35336;48.400;10.886;2022-12-18T00:56:04;97368.84;;;-5.99;94.75
49451;BME280;35336;48.400;10.886;2022-12-18T00:56:20;97368.66;;;-5.96;94.87
49451;BME280;35336;48.400;10.886;2022-12-18T00:56:39;97363.47;;;-5.96;94.79
49451;BME280;35336;48.400;10.886;2022-12-18T00:56:54;97384.69;;;-5.86;94.83
49451;BME280;35336;48.400;10.886;2022-12-18T00:57:10;97371.13;;;-5.93;94.93
49451;BME280;35336;48.400;10.886;2022-12-18T00:57:25;97344.38;;;-6.14;94.94
49451;BME280;35336;48.400;10.886;2022-12-18T00:57:40;97382.22;;;-5.90;94.71
49451;BME280;35336;48.400;10.886;2022-12-18T00:57:56;97340.97;;;-6.15;94.74
49451;BME280;35336;48.400;10.886;2022-12-18T00:58:12;97374.63;;;-5.94;94.80
49451;BME280;35336;48.400;10.886;2022-12-18T00:58:28;97375.53;;;-5.95;94.74
49451;BME280;35336;48.400;10.886;2022-12-18T00:58:43;97393.16;;;-5.83;94.89
49451;BME280;35336;48.400;10.886;2022-12-18T00:58:58;97365.47;;;-6.01;94.86
49451;BME280;35336;48.400;10.886;2022-12-18T00:59:14;97359.38;;;-6.00;94.81
49451;BME280;35336;48.400;10.886;2022-12-18T00:59:29;97395.66;;;-5.80;94.92
49451;BME280;35336;48.400;10.886;2022-12-18T00:59:44;97376.13;;;-5.88;94.88
49451;BME280;35336;48.400;10.886;2022-12-18T01:00:00;97383.56;;;-5.81;94.98
49451;BME280;35336;48.400;10.886;2022-12-18T01:00:16;97395.66;;;-5.80;95.03
49451;BME280;35336;48.400;10.886;2022-12-18T01:00:31;97377.75;;;-5.86;94.88
49451;BME280;35336;48.400;10.886;2022-12-18T01:00:46;97376.97;;;-5.88;94.75
49451;BME280;35336;48.400;10.886;2022-12-18T01:01:04;97379.44;;;-5.85;94.82
49451;BME280;35336;48.400;10.886;2022-12-18T01:01:19;97398.13;;;-5.77;94.87
49451;BME280;35336;48.400;10.886;2022-12-18T01:01:35;97394.66;;;-5.77;94.74
49451;BME280;35336;48.400;10.886;2022-12-18T01:01:50;97383.97;;;-5.90;94.70
49451;BME280;35336;48.400;10.886;2022-12-18T01:02:05;97371.34;;;-5.98;94.61
49451;BME280;35336;48.400;10.886;2022-12-18T01:02:21;97353.53;;;-6.06;94.54
49451;BME280;35336;48.400;10.886;2022-12-18T01:02:36;97387.22;;;-5.85;94.55
49451;BME280;35336;48.400;10.886;2022-12-18T01:02:52;97372.81;;;-5.92;94.55
49451;BME280;35336;48.400;10.886;2022-12-18T01:03:07;97361.97;;;-6.00;94.55
49451;BME280;35336;48.400;10.886;2022-12-18T01:03:24;97385.38;;;-5.83;94.52
49451;BME280;35336;48.400;10.886;2022-12-18T01:03:39;97380.34;;;-5.86;94.58
49451;BME280;35336;48.400;10.886;2022-12-18T01:03:54;97381.31;;;-5.88;94.52
49451;BME280;35336;48.400;10.886;2022-12-18T01:04:10;97396.56;;;-5.81;94.65
49451;BME280;35336;48.400;10.886;2022-12-18T01:04:25;97399.16;;;-5.81;94.51
49451;BME280;35336;48.400;10.886;2022-12-18T01:04:40;97402.72;;;-5.83;94.29
49451;BME280;35336;48.400;10.886;2022-12-18T01:04:56;97401.91;;;-5.84;94.16
49451;BME280;35336;48.400;10.886;2022-12-18T01:05:13;97383.25;;;-5.94;94.06
49451;BME280;35336;48.400;10.886;2022-12-18T01:05:28;97382.31;;;-5.91;94.22
49451;BME280;35336;48.400;10.886;2022-12-18T01:05:43;97373.81;;;-5.95;94.33
49451;BME280;35336;48.400;10.886;2022-12-18T01:05:59;97378.94;;;-5.93;94.33
49451;BME280;35336;48.400;10.886;2022-12-18T01:06:16;97394.09;;;-5.84;94.27
49451;BME280;35336;48.400;10.886;2022-12-18T01:06:31;97380.66;;;-5.94;94.34
49451;BME280;35336;48.400;10.886;2022-12-18T01:06:46;97399.22;;;-5.82;94.46
49451;BME280;35336;48.400;10.886;2022-12-18T01:07:02;97399.34;;;-5.85;94.38
49451;BME280;35336;48.400;10.886;2022-12-18T01:07:17;97395.94;;;-5.86;94.25
49451;BME280;35336;48.400;10.886;2022-12-18T01:07:32;97390.16;;;-5.93;94.20
49451;BME280;35336;48.400;10.886;2022-12-18T01:07:48;97395.00;;;-5.85;94.23
49451;BME280;35336;48.400;10.886;2022-12-18T01:08:03;97406.31;;;-5.86;94.22
49451;BME280;35336;48.400;10.886;2022-12-18T01:08:19;97359.97;;;-6.14;94.31
49451;BME280;35336;48.400;10.886;2022-12-18T01:08:34;97381.84;;;-5.99;94.28
49451;BME280;35336;48.400;10.886;2022-12-18T01:08:50;97379.97;;;-5.97;94.26
49451;BME280;35336;48.400;10.886;2022-12-18T01:09:05;97398.59;;;-5.87;94.25
49451;BME280;35336;48.400;10.886;2022-12-18T01:09:20;97396.91;;;-5.88;94.32
49451;BME280;35336;48.400;10.886;2022-12-18T01:09:36;97386.66;;;-5.92;94.24
49451;BME280;35336;48.400;10.886;2022-12-18T01:09:51;97372.34;;;-6.00;94.26
49451;BME280;35336;48.400;10.886;2022-12-18T01:10:08;97379.06;;;-5.96;94.11
49451;BME280;35336;48.400;10.886;2022-12-18T01:10:25;97381.66;;;-5.96;94.22
49451;BME280;35336;48.400;10.886;2022-12-18T01:10:40;97388.25;;;-5.89;94.18
49451;BME280;35336;48.400;10.886;2022-12-18T01:10:56;97377.38;;;-5.97;94.14
49451;BME280;35336;48.400;10.886;2022-12-18T01:11:15;97378.28;;;-5.98;94.19
49451;BME280;35336;48.400;10.886;2022-12-18T01:11:31;97379.06;;;-5.96;94.37
49451;BME280;35336;48.400;10.886;2022-12-18T01:11:47;97386.00;;;-5.97;94.36
49451;BME280;35336;48.400;10.886;2022-12-18T01:12:02;97374.88;;;-5.99;94.20
49451;BME280;35336;48.400;10.886;2022-12-18T01:12:18;97390.72;;;-5.86;94.33
49451;BME280;35336;48.400;10.886;2022-12-18T01:12:33;97346.28;;;-6.18;94.25
49451;BME280;35336;48.400;10.886;2022-12-18T01:12:49;97400.34;;;-5.88;94.18
49451;BME280;35336;48.400;10.886;2022-12-18T01:13:05;97353.94;;;-6.15;94.26
49451;BME280;35336;48.400;10.886;2022-12-18T01:13:20;97373.25;;;-6.01;94.58
49451;BME280;35336;48.400;10.886;2022-12-18T01:13:35;97377.38;;;-5.97;94.38
49451;BME280;35336;48.400;10.886;2022-12-18T01:13:52;97397.03;;;-5.92;94.61
49451;BME280;35336;48.400;10.886;2022-12-18T01:14:08;97375.00;;;-6.02;94.66
49451;BME280;35336;48.400;10.886;2022-12-18T01:14:23;97393.53;;;-5.91;94.61
49451;BME280;35336;48.400;10.886;2022-12-18T01:14:39;97383.25;;;-5.94;94.59
49451;BME280;35336;48.400;10.886;2022-12-18T01:14:54;97396.84;;;-5.87;94.53
49451;BME280;35336;48.400;10.886;2022-12-18T01:15:11;97403.00;;;-5.90;94.40
49451;BME280;35336;48.400;10.886;2022-12-18T01:15:26;97398.81;;;-5.92;94.16
49451;BME280;35336;48.400;10.886;2022-12-18T01:15:49;97405.69;;;-5.91;94.04
49451;BME280;35336;48.400;10.886;2022-12-18T01:16:05;97378.66;;;-6.06;94.16
49451;BME280;35336;48.400;10.886;2022-12-18T01:16:20;97399.72;;;-5.93;94.20
49451;BME280;35336;48.400;10.886;2022-12-18T01:16:36;97403.13;;;-5.93;94.24
49451;BME280;35336;48.400;10.886;2022-12-18T01:16:51;97404.91;;;-5.93;93.98
49451;BME280;35336;48.400;10.886;2022-12-18T01:17:06;97384.63;;;-6.04;94.19
49451;BME280;35336;48.400;10.886;2022-12-18T01:17:22;97393.06;;;-5.99;94.33
49451;BME280;35336;48.400;10.886;2022-12-18T01:17:37;97398.91;;;-5.95;94.29
49451;BME280;35336;48.400;10.886;2022-12-18T01:17:53;97402.31;;;-5.93;94.13
49451;BME280;35336;48.400;10.886;2022-12-18T01:18:08;97406.59;;;-5.92;94.24
49451;BME280;35336;48.400;10.886;2022-12-18T01:18:23;97410.03;;;-5.92;94.43
49451;BME280;35336;48.400;10.886;2022-12-18T01:18:39;97359.34;;;-6.19;94.40
49451;BME280;35336;48.400;10.886;2022-12-18T01:18:54;97398.00;;;-5.94;94.30
49451;BME280;35336;48.400;10.886;2022-12-18T01:19:10;97385.53;;;-6.05;94.14
49451;BME280;35336;48.400;10.886;2022-12-18T01:19:25;97401.53;;;-5.95;94.28
49451;BME280;35336;48.400;10.886;2022-12-18T01:19:40;97404.19;;;-5.97;94.19
49451;BME280;35336;48.400;10.886;2022-12-18T01:19:56;97389.13;;;-6.08;94.22
49451;BME280;35336;48.400;10.886;2022-12-18T01:20:12;97392.28;;;-6.01;94.43
49451;BME280;35336;48.400;10.886;2022-12-18T01:20:27;97403.09;;;-5.91;94.08
49451;BME280;35336;48.400;10.886;2022-12-18T01:20:43;97402.94;;;-5.88;94.17
49451;BME280;35336;48.400;10.886;2022-12-18T01:20:58;97388.53;;;-5.95;93.96
49451;BME280;35336;48.400;10.886;2022-12-18T01:21:15;97403.09;;;-5.91;94.05
49451;BME280;35336;48.400;10.886;2022-12-18T01:21:31;97380.16;;;-6.00;94.16
49451;BME280;35336;48.400;10.886;2022-12-18T01:21:46;97388.75;;;-6.00;94.05
49451;BME280;35336;48.400;10.886;2022-12-18T01:22:01;97399.50;;;-5.88;93.97
49451;BME280;35336;48.400;10.886;2022-12-18T01:22:17;97400.25;;;-5.86;93.99
49451;BME280;35336;48.400;10.886;2022-12-18T01:22:32;97401.13;;;-5.86;94.07
49451;BME280;35336;48.400;10.886;2022-12-18T01:22:48;97380.81;;;-5.97;93.85
49451;BME280;35336;48.400;10.886;2022-12-18T01:23:03;97375.66;;;-5.98;93.90
49451;BME280;35336;48.400;10.886;2022-12-18T01:23:18;97364.88;;;-6.08;93.82